sensor_id;sensor_type;location;lat;lon;timestamp;pressure;altitude;pressure_sealevel;temperature;humidity
9740;BME280;4909;42.680;26.324;2023-04-19T00:01:19;98057.72;;;12.97;100.00
9740;BME280;4909;42.680;26.324;2023-04-19T00:03:47;98064.66;;;12.99;100.00
9740;BME280;4909;42.680;26.324;2023-04-19T00:06:14;98063.63;;;13.02;100.00
9740;BME280;4909;42.680;26.324;2023-04-19T00:08:42;98055.44;;;13.05;100.00
9740;BME280;4909;42.680;26.324;2023-04-19T00:11:09;98047.91;;;12.97;100.00
9740;BME280;4909;42.680;26.324;2023-04-19T00:13:36;98056.00;;;12.96;100.00
9740;BME280;4909;42.680;26.324;2023-04-19T00:16:03;98049.16;;;12.92;100.00
9740;BME280;4909;42.680;26.324;2023-04-19T00:18:30;98054.09;;;12.98;100.00
9740;BME280;4909;42.680;26.324;2023-04-19T00:20:58;98040.31;;;13.05;100.00
9740;BME280;4909;42.680;26.324;2023-04-19T00:23:26;98033.63;;;13.13;100.00
9740;BME280;4909;42.680;26.324;2023-04-19T00:25:53;98038.78;;;13.01;100.00
9740;BME280;4909;42.680;26.324;2023-04-19T00:28:20;98019.31;;;12.87;100.00
9740;BME280;4909;42.680;26.324;2023-04-19T00:30:47;98039.09;;;12.97;100.00
9740;BME280;4909;42.680;26.324;2023-04-19T00:33:13;98031.66;;;12.88;100.00
9740;BME280;4909;42.680;26.324;2023-04-19T00:35:40;97991.28;;;12.67;100.00
9740;BME280;4909;42.680;26.324;2023-04-19T00:38:08;98013.97;;;12.87;100.00
9740;BME280;4909;42.680;26.324;2023-04-19T00:40:37;98028.44;;;12.97;100.00
9740;BME280;4909;42.680;26.324;2023-04-19T00:43:04;98038.88;;;13.00;100.00
9740;BME280;4909;42.680;26.324;2023-04-19T00:45:31;98032.78;;;12.98;100.00
9740;BME280;4909;42.680;26.324;2023-04-19T00:47:58;98031.28;;;12.94;100.00
9740;BME280;4909;42.680;26.324;2023-04-19T00:50:25;98037.38;;;12.96;100.00
9740;BME280;4909;42.680;26.324;2023-04-19T00:52:53;98029.28;;;12.83;100.00
9740;BME280;4909;42.680;26.324;2023-04-19T00:55:22;98038.31;;;12.95;100.00
9740;BME280;4909;42.680;26.324;2023-04-19T00:57:49;98032.13;;;12.94;100.00
9740;BME280;4909;42.680;26.324;2023-04-19T01:00:17;98042.28;;;12.88;100.00
9740;BME280;4909;42.680;26.324;2023-04-19T01:02:44;98023.78;;;12.86;100.00
9740;BME280;4909;42.680;26.324;2023-04-19T01:05:12;98031.66;;;12.88;100.00
9740;BME280;4909;42.680;26.324;2023-04-19T01:07:39;98037.38;;;12.82;100.00
9740;BME280;4909;42.680;26.324;2023-04-19T01:10:06;98030.91;;;12.72;100.00
9740;BME280;4909;42.680;26.324;2023-04-19T01:12:34;98027.69;;;12.81;100.00
9740;BME280;4909;42.680;26.324;2023-04-19T01:15:01;98020.72;;;12.78;100.00
9740;BME280;4909;42.680;26.324;2023-04-19T01:17:31;98012.19;;;12.87;100.00
9740;BME280;4909;42.680;26.324;2023-04-19T01:19:59;98021.00;;;13.02;100.00
9740;BME280;4909;42.680;26.324;2023-04-19T01:22:27;98018.34;;;13.02;100.00
9740;BME280;4909;42.680;26.324;2023-04-19T01:24:54;97998.59;;;12.78;100.00
9740;BME280;4909;42.680;26.324;2023-04-19T01:27:21;97989.06;;;12.74;100.00
9740;BME280;4909;42.680;26.324;2023-04-19T01:29:48;98018.16;;;12.91;100.00
9740;BME280;4909;42.680;26.324;2023-04-19T01:32:15;98018.47;;;12.72;100.00
9740;BME280;4909;42.680;26.324;2023-04-19T01:34:42;98007.13;;;12.69;100.00
9740;BME280;4909;42.680;26.324;2023-04-19T01:37:09;98014.94;;;12.72;100.00
9740;BME280;4909;42.680;26.324;2023-04-19T01:39:37;97991.44;;;12.64;100.00
9740;BME280;4909;42.680;26.324;2023-04-19T01:42:04;97996.41;;;12.70;100.00
9740;BME280;4909;42.680;26.324;2023-04-19T01:44:30;97990.06;;;12.58;100.00
9740;BME280;4909;42.680;26.324;2023-04-19T01:46:57;98006.97;;;12.72;100.00
9740;BME280;4909;42.680;26.324;2023-04-19T01:49:24;98013.41;;;12.82;100.00
9740;BME280;4909;42.680;26.324;2023-04-19T01:51:50;98016.47;;;12.76;100.00
9740;BME280;4909;42.680;26.324;2023-04-19T01:54:17;98016.47;;;12.76;100.00
9740;BME280;4909;42.680;26.324;2023-04-19T01:56:45;97996.88;;;12.77;100.00
9740;BME280;4909;42.680;26.324;2023-04-19T01:59:12;98013.22;;;12.85;100.00
9740;BME280;4909;42.680;26.324;2023-04-19T02:01:39;98010.63;;;12.83;100.00
9740;BME280;4909;42.680;26.324;2023-04-19T02:04:06;98000.66;;;12.87;100.00
9740;BME280;4909;42.680;26.324;2023-04-19T02:06:33;98006.94;;;12.86;100.00
9740;BME280;4909;42.680;26.324;2023-04-19T02:09:00;97994.84;;;12.94;100.00
9740;BME280;4909;42.680;26.324;2023-04-19T02:11:26;97994.19;;;12.91;100.00
9740;BME280;4909;42.680;26.324;2023-04-19T02:13:55;97998.66;;;12.90;100.00
9740;BME280;4909;42.680;26.324;2023-04-19T02:16:21;97997.28;;;12.97;100.00
9740;BME280;4909;42.680;26.324;2023-04-19T02:18:48;97997.41;;;12.96;100.00
9740;BME280;4909;42.680;26.324;2023-04-19T02:21:16;97989.91;;;12.88;100.00
9740;BME280;4909;42.680;26.324;2023-04-19T02:23:43;97992.38;;;12.91;100.00
9740;BME280;4909;42.680;26.324;2023-04-19T02:26:10;97986.66;;;12.83;100.00
9740;BME280;4909;42.680;26.324;2023-04-19T02:28:37;97973.56;;;12.80;100.00
9740;BME280;4909;42.680;26.324;2023-04-19T02:31:06;97986.41;;;12.74;100.00
9740;BME280;4909;42.680;26.324;2023-04-19T02:33:33;97990.19;;;12.84;100.00
9740;BME280;4909;42.680;26.324;2023-04-19T02:36:00;97991.69;;;12.88;100.00
9740;BME280;4909;42.680;26.324;2023-04-19T02:38:27;97985.34;;;12.90;100.00
9740;BME280;4909;42.680;26.324;2023-04-19T02:40:54;97979.66;;;12.82;100.00
9740;BME280;4909;42.680;26.324;2023-04-19T02:43:20;97988.38;;;12.84;100.00
9740;BME280;4909;42.680;26.324;2023-04-19T02:45:47;97958.09;;;12.44;100.00
9740;BME280;4909;42.680;26.324;2023-04-19T02:48:16;97977.31;;;12.35;100.00
9740;BME280;4909;42.680;26.324;2023-04-19T02:50:43;97993.53;;;12.59;100.00
9740;BME280;4909;42.680;26.324;2023-04-19T02:53:09;97986.91;;;12.66;100.00
9740;BME280;4909;42.680;26.324;2023-04-19T02:55:36;97983.38;;;12.66;100.00
9740;BME280;4909;42.680;26.324;2023-04-19T02:58:03;97978.72;;;12.69;100.00
9740;BME280;4909;42.680;26.324;2023-04-19T03:00:30;97983.59;;;12.62;100.00
9740;BME280;4909;42.680;26.324;2023-04-19T03:02:57;97983.59;;;12.62;100.00
9740;BME280;4909;42.680;26.324;2023-04-19T03:05:25;97984.25;;;12.66;100.00
9740;BME280;4909;42.680;26.324;2023-04-19T03:07:51;97979.28;;;12.60;100.00
9740;BME280;4909;42.680;26.324;2023-04-19T03:10:18;97990.72;;;12.62;100.00
9740;BME280;4909;42.680;26.324;2023-04-19T03:12:45;97995.81;;;12.65;100.00
9740;BME280;4909;42.680;26.324;2023-04-19T03:15:12;97979.50;;;12.57;100.00
9740;BME280;4909;42.680;26.324;2023-04-19T03:17:39;97982.44;;;12.67;100.00
9740;BME280;4909;42.680;26.324;2023-04-19T03:20:06;97975.09;;;12.70;100.00
9740;BME280;4909;42.680;26.324;2023-04-19T03:22:37;97980.00;;;12.90;100.00
9740;BME280;4909;42.680;26.324;2023-04-19T03:25:05;97979.06;;;12.91;100.00
9740;BME280;4909;42.680;26.324;2023-04-19T03:27:33;97981.16;;;12.86;100.00
9740;BME280;4909;42.680;26.324;2023-04-19T03:30:00;97986.88;;;12.80;100.00
9740;BME280;4909;42.680;26.324;2023-04-19T03:32:27;97972.91;;;12.77;100.00
9740;BME280;4909;42.680;26.324;2023-04-19T03:34:54;97991.59;;;12.89;100.00
9740;BME280;4909;42.680;26.324;2023-04-19T03:37:20;97979.47;;;12.71;100.00
9740;BME280;4909;42.680;26.324;2023-04-19T03:39:48;97983.00;;;12.72;100.00
9740;BME280;4909;42.680;26.324;2023-04-19T03:42:15;97984.97;;;12.82;100.00
9740;BME280;4909;42.680;26.324;2023-04-19T03:44:42;97988.88;;;12.77;100.00
9740;BME280;4909;42.680;26.324;2023-04-19T03:47:09;97984.13;;;12.82;100.00
9740;BME280;4909;42.680;26.324;2023-04-19T03:49:35;97976.59;;;12.74;100.00
9740;BME280;4909;42.680;26.324;2023-04-19T03:52:02;97995.38;;;12.73;100.00
9740;BME280;4909;42.680;26.324;2023-04-19T03:54:29;97992.69;;;12.73;100.00
9740;BME280;4909;42.680;26.324;2023-04-19T03:56:57;97991.84;;;12.72;100.00
9740;BME280;4909;42.680;26.324;2023-04-19T03:59:25;97977.28;;;12.78;100.00
9740;BME280;4909;42.680;26.324;2023-04-19T04:01:51;97978.69;;;12.83;100.00
9740;BME280;4909;42.680;26.324;2023-04-19T04:04:18;97986.84;;;12.94;100.00
9740;BME280;4909;42.680;26.324;2023-04-19T04:06:45;97984.91;;;13.11;100.00
9740;BME280;4909;42.680;26.324;2023-04-19T04:09:12;97988.47;;;13.11;100.00
9740;BME280;4909;42.680;26.324;2023-04-19T04:11:38;97984.06;;;13.10;100.00
9740;BME280;4909;42.680;26.324;2023-04-19T04:14:07;97978.47;;;13.00;100.00
9740;BME280;4909;42.680;26.324;2023-04-19T04:16:33;97981.88;;;13.02;100.00
9740;BME280;4909;42.680;26.324;2023-04-19T04:19:00;97986.94;;;12.93;100.00
9740;BME280;4909;42.680;26.324;2023-04-19T04:21:27;97974.13;;;12.85;100.00
9740;BME280;4909;42.680;26.324;2023-04-19T04:23:53;97975.94;;;12.85;100.00
9740;BME280;4909;42.680;26.324;2023-04-19T04:26:20;97978.13;;;12.64;100.00
9740;BME280;4909;42.680;26.324;2023-04-19T04:28:49;97979.84;;;12.65;100.00
9740;BME280;4909;42.680;26.324;2023-04-19T04:31:17;97978.91;;;12.66;100.00
9740;BME280;4909;42.680;26.324;2023-04-19T04:33:45;97979.00;;;12.64;100.00
9740;BME280;4909;42.680;26.324;2023-04-19T04:36:12;97986.69;;;12.69;100.00
9740;BME280;4909;42.680;26.324;2023-04-19T04:38:38;97983.00;;;12.72;100.00
9740;BME280;4909;42.680;26.324;2023-04-19T04:41:05;97979.19;;;12.61;100.00
9740;BME280;4909;42.680;26.324;2023-04-19T04:43:33;97990.03;;;12.73;100.00
9740;BME280;4909;42.680;26.324;2023-04-19T04:45:59;97989.16;;;12.86;100.00
9740;BME280;4909;42.680;26.324;2023-04-19T04:48:28;97987.16;;;12.90;100.00
9740;BME280;4909;42.680;26.324;2023-04-19T04:50:55;97989.59;;;12.93;100.00
9740;BME280;4909;42.680;26.324;2023-04-19T04:53:24;97978.22;;;12.91;100.00
9740;BME280;4909;42.680;26.324;2023-04-19T04:55:52;97988.78;;;12.78;100.00
9740;BME280;4909;42.680;26.324;2023-04-19T04:58:19;98007.03;;;12.70;100.00
9740;BME280;4909;42.680;26.324;2023-04-19T05:00:45;97999.63;;;12.61;100.00
9740;BME280;4909;42.680;26.324;2023-04-19T05:03:13;98003.34;;;12.73;100.00
9740;BME280;4909;42.680;26.324;2023-04-19T05:05:41;97975.75;;;12.74;100.00
9740;BME280;4909;42.680;26.324;2023-04-19T05:08:08;98000.09;;;12.82;100.00
9740;BME280;4909;42.680;26.324;2023-04-19T05:10:35;98011.44;;;12.71;100.00
9740;BME280;4909;42.680;26.324;2023-04-19T05:13:01;98007.03;;;12.70;100.00
9740;BME280;4909;42.680;26.324;2023-04-19T05:15:28;97996.88;;;12.77;100.00
9740;BME280;4909;42.680;26.324;2023-04-19T05:17:55;98001.41;;;12.89;100.00
9740;BME280;4909;42.680;26.324;2023-04-19T05:20:22;97988.38;;;12.84;100.00
9740;BME280;4909;42.680;26.324;2023-04-19T05:22:55;97985.63;;;12.86;100.00
9740;BME280;4909;42.680;26.324;2023-04-19T05:25:22;97997.84;;;13.02;100.00
9740;BME280;4909;42.680;26.324;2023-04-19T05:27:49;98006.41;;;13.07;100.00
9740;BME280;4909;42.680;26.324;2023-04-19T05:30:16;98001.28;;;13.04;100.00
9740;BME280;4909;42.680;26.324;2023-04-19T05:32:43;98010.78;;;13.08;100.00
9740;BME280;4909;42.680;26.324;2023-04-19T05:35:10;98009.75;;;13.25;100.00
9740;BME280;4909;42.680;26.324;2023-04-19T05:37:36;97998.88;;;13.28;100.00
9740;BME280;4909;42.680;26.324;2023-04-19T05:40:06;97991.88;;;13.40;100.00
9740;BME280;4909;42.680;26.324;2023-04-19T05:42:35;97996.38;;;13.39;100.00
9740;BME280;4909;42.680;26.324;2023-04-19T05:45:02;98002.88;;;13.48;100.00
9740;BME280;4909;42.680;26.324;2023-04-19T05:47:29;98002.44;;;13.41;100.00
9740;BME280;4909;42.680;26.324;2023-04-19T05:49:55;98003.53;;;13.52;100.00
9740;BME280;4909;42.680;26.324;2023-04-19T05:52:22;97999.13;;;13.65;100.00
9740;BME280;4909;42.680;26.324;2023-04-19T05:54:49;97983.28;;;13.49;100.00
9740;BME280;4909;42.680;26.324;2023-04-19T05:57:17;98006.38;;;13.36;100.00
9740;BME280;4909;42.680;26.324;2023-04-19T05:59:44;98014.81;;;13.42;100.00
9740;BME280;4909;42.680;26.324;2023-04-19T06:02:10;98015.34;;;13.47;100.00
9740;BME280;4909;42.680;26.324;2023-04-19T06:04:37;98018.03;;;13.47;100.00
9740;BME280;4909;42.680;26.324;2023-04-19T06:07:04;98015.34;;;13.47;100.00
9740;BME280;4909;42.680;26.324;2023-04-19T06:09:31;97994.41;;;13.29;100.00
9740;BME280;4909;42.680;26.324;2023-04-19T06:11:57;98018.84;;;12.80;100.00
9740;BME280;4909;42.680;26.324;2023-04-19T06:14:27;98023.28;;;12.80;100.00
9740;BME280;4909;42.680;26.324;2023-04-19T06:16:53;98024.16;;;12.80;100.00
9740;BME280;4909;42.680;26.324;2023-04-19T06:19:21;98015.66;;;12.88;100.00
9740;BME280;4909;42.680;26.324;2023-04-19T06:21:48;98015.09;;;12.97;100.00
9740;BME280;4909;42.680;26.324;2023-04-19T06:24:15;98007.94;;;12.97;100.00
9740;BME280;4909;42.680;26.324;2023-04-19T06:26:42;98021.28;;;13.12;100.00
9740;BME280;4909;42.680;26.324;2023-04-19T06:29:08;98017.06;;;13.07;100.00
9740;BME280;4909;42.680;26.324;2023-04-19T06:31:36;97997.97;;;13.01;100.00
9740;BME280;4909;42.680;26.324;2023-04-19T06:34:03;98021.34;;;13.10;100.00
9740;BME280;4909;42.680;26.324;2023-04-19T06:36:31;98030.50;;;13.06;100.00
9740;BME280;4909;42.680;26.324;2023-04-19T06:38:57;98027.84;;;13.20;100.00
9740;BME280;4909;42.680;26.324;2023-04-19T06:41:24;98033.16;;;13.20;100.00
9740;BME280;4909;42.680;26.324;2023-04-19T06:43:51;98039.41;;;13.33;100.00
9740;BME280;4909;42.680;26.324;2023-04-19T06:46:18;98032.88;;;13.25;100.00
9740;BME280;4909;42.680;26.324;2023-04-19T06:48:46;98032.59;;;13.42;100.00
9740;BME280;4909;42.680;26.324;2023-04-19T06:51:13;98032.84;;;13.52;100.00
9740;BME280;4909;42.680;26.324;2023-04-19T06:53:39;98032.16;;;13.62;100.00
9740;BME280;4909;42.680;26.324;2023-04-19T06:56:08;98025.19;;;13.86;100.00
9740;BME280;4909;42.680;26.324;2023-04-19T06:58:35;98040.72;;;14.19;100.00
9740;BME280;4909;42.680;26.324;2023-04-19T07:01:02;98022.75;;;14.09;100.00
9740;BME280;4909;42.680;26.324;2023-04-19T07:03:29;98021.16;;;14.19;100.00
9740;BME280;4909;42.680;26.324;2023-04-19T07:05:57;98045.31;;;14.17;100.00
9740;BME280;4909;42.680;26.324;2023-04-19T07:08:26;98049.03;;;14.15;100.00
9740;BME280;4909;42.680;26.324;2023-04-19T07:10:52;98050.97;;;14.25;100.00
9740;BME280;4909;42.680;26.324;2023-04-19T07:13:21;98041.25;;;14.24;100.00
9740;BME280;4909;42.680;26.324;2023-04-19T07:15:47;98050.56;;;14.31;100.00
9740;BME280;4909;42.680;26.324;2023-04-19T07:18:14;98065.50;;;14.21;97.25
9740;BME280;4909;42.680;26.324;2023-04-19T07:20:41;98067.53;;;14.18;99.81
9740;BME280;4909;42.680;26.324;2023-04-19T07:23:14;98062.84;;;13.94;96.05
9740;BME280;4909;42.680;26.324;2023-04-19T07:25:41;98059.06;;;13.99;96.71
9740;BME280;4909;42.680;26.324;2023-04-19T07:28:08;98059.06;;;13.99;99.06
9740;BME280;4909;42.680;26.324;2023-04-19T07:30:34;98035.53;;;13.91;96.52
9740;BME280;4909;42.680;26.324;2023-04-19T07:33:01;98070.91;;;14.07;97.15
9740;BME280;4909;42.680;26.324;2023-04-19T07:35:29;98069.41;;;14.03;97.48
9740;BME280;4909;42.680;26.324;2023-04-19T07:37:56;98068.16;;;14.21;98.92
9740;BME280;4909;42.680;26.324;2023-04-19T07:40:24;98055.53;;;14.23;98.17
9740;BME280;4909;42.680;26.324;2023-04-19T07:42:50;98076.97;;;14.09;92.83
9740;BME280;4909;42.680;26.324;2023-04-19T07:45:18;98069.84;;;14.10;94.00
9740;BME280;4909;42.680;26.324;2023-04-19T07:47:44;98075.31;;;14.21;94.92
9740;BME280;4909;42.680;26.324;2023-04-19T07:50:11;98081.22;;;14.39;97.22
9740;BME280;4909;42.680;26.324;2023-04-19T07:52:38;98080.56;;;14.22;91.88
9740;BME280;4909;42.680;26.324;2023-04-19T07:55:06;98075.22;;;14.22;92.48
9740;BME280;4909;42.680;26.324;2023-04-19T07:57:34;98082.00;;;14.53;96.71
9740;BME280;4909;42.680;26.324;2023-04-19T08:00:02;98085.72;;;14.63;95.35
9740;BME280;4909;42.680;26.324;2023-04-19T08:02:30;98078.28;;;14.81;94.80
9740;BME280;4909;42.680;26.324;2023-04-19T08:04:56;98088.44;;;14.76;93.49
9740;BME280;4909;42.680;26.324;2023-04-19T08:07:23;98094.19;;;14.70;90.18
9740;BME280;4909;42.680;26.324;2023-04-19T08:09:50;98085.22;;;14.71;91.11
9740;BME280;4909;42.680;26.324;2023-04-19T08:12:17;98070.34;;;14.79;93.42
9740;BME280;4909;42.680;26.324;2023-04-19T08:14:45;98090.97;;;14.77;91.23
9740;BME280;4909;42.680;26.324;2023-04-19T08:17:13;98092.16;;;14.61;90.38
9740;BME280;4909;42.680;26.324;2023-04-19T08:19:40;98094.16;;;14.57;89.41
9740;BME280;4909;42.680;26.324;2023-04-19T08:22:07;98091.28;;;14.48;89.89
9740;BME280;4909;42.680;26.324;2023-04-19T08:24:34;98091.81;;;14.53;89.12
9740;BME280;4909;42.680;26.324;2023-04-19T08:27:01;98074.31;;;14.49;90.97
9740;BME280;4909;42.680;26.324;2023-04-19T08:29:27;98093.22;;;14.58;90.65
9740;BME280;4909;42.680;26.324;2023-04-19T08:31:56;98087.69;;;14.61;92.75
9740;BME280;4909;42.680;26.324;2023-04-19T08:34:23;98095.88;;;14.46;89.56
9740;BME280;4909;42.680;26.324;2023-04-19T08:36:50;98086.69;;;14.50;93.32
9740;BME280;4909;42.680;26.324;2023-04-19T08:39:16;98063.69;;;14.34;92.44
9740;BME280;4909;42.680;26.324;2023-04-19T08:41:43;98097.16;;;14.53;93.27
9740;BME280;4909;42.680;26.324;2023-04-19T08:44:11;98093.78;;;14.24;90.77
9740;BME280;4909;42.680;26.324;2023-04-19T08:46:38;98091.47;;;14.32;94.50
9740;BME280;4909;42.680;26.324;2023-04-19T08:49:07;98100.50;;;14.17;92.81
9740;BME280;4909;42.680;26.324;2023-04-19T08:51:34;98090.25;;;14.23;94.89
9740;BME280;4909;42.680;26.324;2023-04-19T08:54:03;98089.19;;;14.13;94.26
9740;BME280;4909;42.680;26.324;2023-04-19T08:56:31;98094.94;;;14.07;94.08
9740;BME280;4909;42.680;26.324;2023-04-19T08:58:58;98092.94;;;13.84;95.17
9740;BME280;4909;42.680;26.324;2023-04-19T09:01:25;98072.19;;;13.75;94.83
9740;BME280;4909;42.680;26.324;2023-04-19T09:03:52;98092.78;;;13.73;94.78
9740;BME280;4909;42.680;26.324;2023-04-19T09:06:20;98096.72;;;13.67;94.95
9740;BME280;4909;42.680;26.324;2023-04-19T09:08:47;98089.34;;;13.71;95.13
9740;BME280;4909;42.680;26.324;2023-04-19T09:11:15;98088.78;;;13.66;95.09
9740;BME280;4909;42.680;26.324;2023-04-19T09:13:42;98095.66;;;13.70;94.64
9740;BME280;4909;42.680;26.324;2023-04-19T09:16:22;98038.72;;;13.44;96.27
9740;BME280;4909;42.680;26.324;2023-04-19T09:18:52;98099.16;;;13.70;94.49
9740;BME280;4909;42.680;26.324;2023-04-19T09:21:28;98099.28;;;13.69;94.63
9740;BME280;4909;42.680;26.324;2023-04-19T09:23:55;98089.72;;;13.79;95.87
9740;BME280;4909;42.680;26.324;2023-04-19T09:26:21;98094.69;;;13.98;94.75
9740;BME280;4909;42.680;26.324;2023-04-19T09:28:54;98082.81;;;13.89;94.38
9740;BME280;4909;42.680;26.324;2023-04-19T09:31:21;98099.00;;;14.13;95.54
9740;BME280;4909;42.680;26.324;2023-04-19T09:33:48;98100.41;;;14.18;96.10
9740;BME280;4909;42.680;26.324;2023-04-19T09:36:27;98107.47;;;14.32;93.49
9740;BME280;4909;42.680;26.324;2023-04-19T09:38:54;98096.19;;;14.41;94.11
9740;BME280;4909;42.680;26.324;2023-04-19T09:41:21;98111.91;;;14.46;90.16
9740;BME280;4909;42.680;26.324;2023-04-19T09:43:47;98106.25;;;14.38;90.86
9740;BME280;4909;42.680;26.324;2023-04-19T09:46:30;98098.22;;;14.50;92.60
9740;BME280;4909;42.680;26.324;2023-04-19T09:49:14;98106.25;;;14.75;91.20
9740;BME280;4909;42.680;26.324;2023-04-19T09:51:43;98109.69;;;14.90;90.76
9740;BME280;4909;42.680;26.324;2023-04-19T09:54:11;98099.53;;;14.95;91.13
9740;BME280;4909;42.680;26.324;2023-04-19T09:56:38;98116.22;;;14.86;88.97
9740;BME280;4909;42.680;26.324;2023-04-19T09:59:06;98114.16;;;14.64;87.71
9740;BME280;4909;42.680;26.324;2023-04-19T10:01:36;98115.03;;;14.65;87.38
9740;BME280;4909;42.680;26.324;2023-04-19T10:04:04;98110.63;;;14.64;88.06
9740;BME280;4909;42.680;26.324;2023-04-19T10:06:33;98112.25;;;14.66;88.74
9740;BME280;4909;42.680;26.324;2023-04-19T10:09:02;98111.81;;;14.72;89.42
9740;BME280;4909;42.680;26.324;2023-04-19T10:11:32;98112.88;;;14.70;88.47
9740;BME280;4909;42.680;26.324;2023-04-19T10:14:04;98115.13;;;14.76;87.07
9740;BME280;4909;42.680;26.324;2023-04-19T10:16:32;98103.38;;;14.78;88.87
9740;BME280;4909;42.680;26.324;2023-04-19T10:19:00;98108.38;;;14.83;86.98
9740;BME280;4909;42.680;26.324;2023-04-19T10:21:28;98119.59;;;14.88;85.64
9740;BME280;4909;42.680;26.324;2023-04-19T10:23:55;98118.03;;;14.86;84.91
9740;BME280;4909;42.680;26.324;2023-04-19T10:26:24;98104.97;;;14.94;87.25
9740;BME280;4909;42.680;26.324;2023-04-19T10:28:53;98108.81;;;15.02;85.47
9740;BME280;4909;42.680;26.324;2023-04-19T10:31:20;98086.28;;;14.81;86.51
9740;BME280;4909;42.680;26.324;2023-04-19T10:33:48;98118.97;;;14.97;84.69
9740;BME280;4909;42.680;26.324;2023-04-19T10:36:17;98102.09;;;14.84;84.22
9740;BME280;4909;42.680;26.324;2023-04-19T10:38:45;98118.09;;;14.97;84.97
9740;BME280;4909;42.680;26.324;2023-04-19T10:41:12;98102.28;;;14.68;82.43
9740;BME280;4909;42.680;26.324;2023-04-19T10:43:43;98077.19;;;14.58;82.88
9740;BME280;4909;42.680;26.324;2023-04-19T10:46:14;98117.34;;;14.82;82.61
9740;BME280;4909;42.680;26.324;2023-04-19T10:48:50;98089.59;;;14.85;84.09
9740;BME280;4909;42.680;26.324;2023-04-19T10:51:21;98117.97;;;15.23;83.73
9740;BME280;4909;42.680;26.324;2023-04-19T10:53:56;98109.84;;;15.25;85.10
9740;BME280;4909;42.680;26.324;2023-04-19T10:59:37;98121.59;;;15.22;85.58
9740;BME280;4909;42.680;26.324;2023-04-19T11:02:27;98121.31;;;15.14;86.46
9740;BME280;4909;42.680;26.324;2023-04-19T11:05:00;98100.16;;;14.99;85.16
9740;BME280;4909;42.680;26.324;2023-04-19T11:07:36;98130.09;;;15.04;86.10
9740;BME280;4909;42.680;26.324;2023-04-19T11:10:03;98089.91;;;14.80;86.80
9740;BME280;4909;42.680;26.324;2023-04-19T11:12:31;98120.69;;;14.98;86.75
9740;BME280;4909;42.680;26.324;2023-04-19T11:15:00;98121.09;;;14.92;85.91
9740;BME280;4909;42.680;26.324;2023-04-19T11:17:28;98096.09;;;14.68;85.96
9740;BME280;4909;42.680;26.324;2023-04-19T11:19:57;98102.59;;;14.76;86.57
9740;BME280;4909;42.680;26.324;2023-04-19T11:22:28;98077.31;;;14.69;87.67
9740;BME280;4909;42.680;26.324;2023-04-19T11:24:55;98067.91;;;14.51;87.10
9740;BME280;4909;42.680;26.324;2023-04-19T11:27:22;98083.94;;;14.51;86.58
9740;BME280;4909;42.680;26.324;2023-04-19T11:29:50;98121.19;;;14.53;87.08
9740;BME280;4909;42.680;26.324;2023-04-19T11:32:20;98124.09;;;14.62;88.53
9740;BME280;4909;42.680;26.324;2023-04-19T11:34:46;98122.50;;;14.47;87.77
9740;BME280;4909;42.680;26.324;2023-04-19T11:37:13;98135.44;;;14.26;88.39
9740;BME280;4909;42.680;26.324;2023-04-19T11:39:44;98111.38;;;14.14;90.62
9740;BME280;4909;42.680;26.324;2023-04-19T11:42:16;98103.19;;;13.90;90.58
9740;BME280;4909;42.680;26.324;2023-04-19T11:44:47;98137.81;;;14.04;91.34
9740;BME280;4909;42.680;26.324;2023-04-19T11:47:14;98132.28;;;14.07;91.98
9740;BME280;4909;42.680;26.324;2023-04-19T11:49:43;98124.91;;;13.98;90.71
9740;BME280;4909;42.680;26.324;2023-04-19T11:52:09;98129.75;;;14.18;91.32
9740;BME280;4909;42.680;26.324;2023-04-19T11:54:36;98134.19;;;14.05;90.71
9740;BME280;4909;42.680;26.324;2023-04-19T11:57:05;98132.72;;;14.14;89.48
9740;BME280;4909;42.680;26.324;2023-04-19T11:59:33;98133.63;;;14.27;88.52
9740;BME280;4909;42.680;26.324;2023-04-19T12:02:08;98131.50;;;14.32;89.31
9740;BME280;4909;42.680;26.324;2023-04-19T12:04:35;98133.94;;;14.35;90.26
9740;BME280;4909;42.680;26.324;2023-04-19T12:07:04;98126.31;;;14.43;88.95
9740;BME280;4909;42.680;26.324;2023-04-19T12:09:33;98108.81;;;14.52;87.82
9740;BME280;4909;42.680;26.324;2023-04-19T12:12:01;98120.91;;;14.70;86.17
9740;BME280;4909;42.680;26.324;2023-04-19T12:14:28;98123.47;;;14.71;85.70
9740;BME280;4909;42.680;26.324;2023-04-19T12:17:09;98117.03;;;14.87;85.94
9740;BME280;4909;42.680;26.324;2023-04-19T12:19:41;98119.59;;;14.88;86.24
9740;BME280;4909;42.680;26.324;2023-04-19T12:22:11;98123.44;;;14.97;85.95
9740;BME280;4909;42.680;26.324;2023-04-19T12:24:38;98092.25;;;14.97;86.57
9740;BME280;4909;42.680;26.324;2023-04-19T12:27:06;98100.88;;;15.13;86.42
9740;BME280;4909;42.680;26.324;2023-04-19T12:29:33;98115.53;;;15.08;85.83
9740;BME280;4909;42.680;26.324;2023-04-19T12:32:00;98093.19;;;15.09;85.73
9740;BME280;4909;42.680;26.324;2023-04-19T12:34:27;98104.06;;;15.31;84.86
9740;BME280;4909;42.680;26.324;2023-04-19T12:36:54;98096.53;;;15.49;84.25
9740;BME280;4909;42.680;26.324;2023-04-19T12:39:22;98104.56;;;15.49;81.39
9740;BME280;4909;42.680;26.324;2023-04-19T12:41:49;98103.16;;;15.56;82.76
9740;BME280;4909;42.680;26.324;2023-04-19T12:44:16;98101.44;;;15.68;83.02
9740;BME280;4909;42.680;26.324;2023-04-19T12:46:42;98082.13;;;15.39;82.51
9740;BME280;4909;42.680;26.324;2023-04-19T12:49:09;98098.59;;;15.33;82.88
9740;BME280;4909;42.680;26.324;2023-04-19T12:51:36;98076.59;;;15.29;84.02
9740;BME280;4909;42.680;26.324;2023-04-19T12:54:03;98087.47;;;15.39;83.99
9740;BME280;4909;42.680;26.324;2023-04-19T12:56:33;98101.56;;;15.41;82.22
9740;BME280;4909;42.680;26.324;2023-04-19T12:59:00;98091.00;;;15.39;83.91
9740;BME280;4909;42.680;26.324;2023-04-19T13:01:27;98088.84;;;15.57;85.02
9740;BME280;4909;42.680;26.324;2023-04-19T13:03:54;98092.88;;;15.62;82.80
9740;BME280;4909;42.680;26.324;2023-04-19T13:06:20;98101.13;;;15.47;81.39
9740;BME280;4909;42.680;26.324;2023-04-19T13:08:47;98101.69;;;15.52;80.08
9740;BME280;4909;42.680;26.324;2023-04-19T13:11:14;98080.13;;;15.17;79.29